Time;durP1;ratioP1;P1;durP2;ratioP2;P2;SDS_P1;SDS_P2;PMS_P1;PMS_P2;Temp;Humidity;BMP_temperature;BMP_pressure;BME280_temperature;BME280_humidity;BME280_pressure;Samples;Min_cycle;Max_cycle;Signal;HPM_P1;HPM_P2
2021/05/16 07:31:13;;;;;;;26.52;4.68;;;13.40;99.90;;;;;;6092843;23;20033;-84
2021/05/16 07:33:40;;;;;;;35.00;6.05;;;13.40;99.90;;;;;;6211415;23;20475;-83
2021/05/16 07:36:07;;;;;;;32.05;5.32;;;13.40;99.90;;;;;;6211075;23;20533;-84
2021/05/16 07:38:35;;;;;;;25.65;5.35;;;13.40;99.90;;;;;;6211834;23;20024;-82
2021/05/16 07:41:03;;;;;;;35.30;5.32;;;13.40;99.90;;;;;;6211256;23;20024;-81
2021/05/16 07:43:30;;;;;;;35.30;5.43;;;13.30;99.90;;;;;;6210790;23;20351;-83
2021/05/16 07:45:57;;;;;;;37.47;5.97;;;13.30;99.90;;;;;;6209729;23;20020;-84
2021/05/16 07:48:28;;;;;;;36.03;5.53;;;13.40;99.90;;;;;;6209281;23;20029;-85
2021/05/16 07:50:57;;;;;;;39.65;6.25;;;13.40;99.90;;;;;;6211344;23;20016;-84
2021/05/16 07:53:25;;;;;;;30.48;5.82;;;13.50;99.90;;;;;;6208785;23;20025;-82
2021/05/16 07:55:52;;;;;;;35.50;6.43;;;13.70;99.90;;;;;;6211149;23;20533;-82
2021/05/16 07:58:19;;;;;;;26.98;5.28;;;13.90;99.90;;;;;;6210721;23;20025;-83
2021/05/16 08:00:46;;;;;;;30.58;5.95;;;14.00;99.90;;;;;;6211500;23;20021;-82
2021/05/16 08:03:13;;;;;;;29.50;6.25;;;14.10;99.90;;;;;;6210781;23;20533;-85
2021/05/16 08:05:40;;;;;;;34.08;5.10;;;14.10;99.90;;;;;;6211927;23;20025;-83
2021/05/16 08:08:07;;;;;;;35.50;6.18;;;14.10;99.90;;;;;;6212722;23;20074;-83
2021/05/16 08:10:34;;;;;;;35.00;5.93;;;14.00;99.90;;;;;;6213014;23;20013;-84
2021/05/16 08:13:01;;;;;;;36.08;5.60;;;13.90;99.90;;;;;;6211109;23;20013;-83
2021/05/16 08:15:28;;;;;;;36.13;6.25;;;13.80;99.90;;;;;;6212587;23;20348;-85
2021/05/16 08:17:54;;;;;;;33.50;6.28;;;13.90;99.90;;;;;;6213126;23;20090;-85
2021/05/16 08:20:21;;;;;;;29.08;4.93;;;14.10;99.90;;;;;;6212435;23;20020;-82
2021/05/16 08:22:48;;;;;;;35.15;5.60;;;14.20;99.90;;;;;;6215712;23;20021;-84
2021/05/16 08:25:16;;;;;;;33.67;5.55;;;14.20;99.90;;;;;;6213498;23;20020;-82
2021/05/16 08:27:43;;;;;;;29.05;5.45;;;14.30;99.90;;;;;;6213886;23;20375;-85
2021/05/16 08:30:11;;;;;;;37.30;5.00;;;14.50;99.90;;;;;;6215214;23;20012;-84
2021/05/16 08:32:38;;;;;;;27.48;4.30;;;14.50;99.90;;;;;;6213940;23;20059;-84
2021/05/16 08:35:06;;;;;;;25.20;5.25;;;14.60;99.90;;;;;;6213184;23;20086;-85
2021/05/16 08:37:33;;;;;;;34.58;5.40;;;14.70;99.90;;;;;;6213878;23;20067;-83
2021/05/16 08:40:00;;;;;;;32.05;5.45;;;14.90;99.90;;;;;;6215441;23;20016;-83
2021/05/16 08:42:29;;;;;;;33.40;5.60;;;14.90;99.90;;;;;;6212438;23;20477;-83
2021/05/16 08:44:56;;;;;;;36.55;6.05;;;15.00;99.90;;;;;;6213738;23;20028;-82
2021/05/16 08:47:22;;;;;;;35.75;5.68;;;14.80;99.90;;;;;;6214611;23;20044;-83
2021/05/16 08:49:50;;;;;;;28.20;5.20;;;14.70;99.90;;;;;;6213770;23;20525;-84
2021/05/16 08:52:17;;;;;;;35.58;6.10;;;14.70;99.90;;;;;;6214872;23;20013;-84
2021/05/16 08:54:45;;;;;;;33.42;5.15;;;14.60;99.90;;;;;;6215293;23;20396;-85
2021/05/16 08:57:12;;;;;;;35.03;5.68;;;14.50;99.90;;;;;;6214107;23;20444;-82
2021/05/16 09:00:06;;;;;;;29.95;5.20;;;14.40;99.90;;;;;;6214960;23;20082;-83
2021/05/16 09:02:33;;;;;;;38.47;5.35;;;14.50;99.90;;;;;;6212683;23;20023;-83
2021/05/16 09:05:00;;;;;;;28.77;4.90;;;14.50;99.90;;;;;;6210446;23;20016;-84
2021/05/16 09:07:31;;;;;;;36.33;5.88;;;14.60;99.90;;;;;;6208798;23;20403;-80
2021/05/16 09:09:58;;;;;;;28.48;5.57;;;14.70;99.90;;;;;;6209896;23;20023;-83
2021/05/16 09:12:25;;;;;;;29.95;5.55;;;14.60;99.90;;;;;;6209191;23;20067;-84
2021/05/16 09:14:53;;;;;;;36.15;5.82;;;14.60;99.90;;;;;;6211060;23;20030;-85
2021/05/16 09:17:23;;;;;;;39.60;6.10;;;14.70;99.90;;;;;;6211588;23;20091;-88
2021/05/16 09:19:52;;;;;;;30.45;6.32;;;14.70;99.90;;;;;;6213259;23;20070;-84
2021/05/16 09:22:41;;;;;;;36.40;6.60;;;14.60;99.90;;;;;;6211576;23;20016;-86
2021/05/16 09:25:19;;;;;;;33.28;5.90;;;14.60;99.90;;;;;;6209808;23;20020;-84
2021/05/16 09:27:54;;;;;;;31.27;5.25;;;14.70;99.90;;;;;;6210515;23;20092;-84
2021/05/16 09:30:23;;;;;;;34.00;5.88;;;14.70;99.90;;;;;;6207475;23;20098;-85
2021/05/16 09:33:01;;;;;;;29.73;5.53;;;14.70;99.90;;;;;;6209966;23;20083;-86
2021/05/16 09:35:39;;;;;;;;;;;14.70;99.90;;;;;;6209144;23;20395;-84
2021/05/16 09:38:12;;;;;;;28.53;5.43;;;14.70;99.90;;;;;;6207280;23;19920;-83
2021/05/16 09:40:45;;;;;;;26.92;5.32;;;14.60;99.90;;;;;;6209533;23;20243;-83
2021/05/16 09:43:15;;;;;;;36.50;5.38;;;14.60;99.90;;;;;;6208933;23;20024;-83
2021/05/16 09:45:50;;;;;;;35.30;5.70;;;14.70;99.90;;;;;;6211195;23;20495;-84
2021/05/16 09:48:18;;;;;;;31.13;5.20;;;14.80;99.90;;;;;;6209199;23;20025;-85
2021/05/16 09:51:02;;;;;;;;;;;14.80;99.90;;;;;;6210367;23;20024;-82
2021/05/16 09:53:29;;;;;;;31.60;5.32;;;14.80;99.90;;;;;;6209529;23;20987;-82
2021/05/16 09:56:26;;;;;;;31.58;6.28;;;14.70;99.90;;;;;;6209222;23;20029;-83
2021/05/16 09:58:55;;;;;;;30.92;5.07;;;14.70;99.90;;;;;;6209217;23;20020;-84
2021/05/16 10:01:23;;;;;;;33.80;6.10;;;14.60;99.90;;;;;;6208812;23;20392;-84
2021/05/16 10:03:50;;;;;;;24.58;5.10;;;14.60;99.90;;;;;;6211653;23;20075;-83
2021/05/16 10:06:19;;;;;;;28.90;5.60;;;14.70;99.90;;;;;;6208066;23;20020;-85
2021/05/16 10:08:49;;;;;;;;;;;14.70;99.90;;;;;;6209180;23;20016;-84
2021/05/16 10:11:27;;;;;;;35.08;5.90;;;14.80;99.90;;;;;;6208029;23;20293;-83
2021/05/16 10:14:05;;;;;;;26.70;5.50;;;15.10;99.90;;;;;;6209096;23;20075;-84
2021/05/16 10:16:39;;;;;;;25.67;5.22;;;15.10;99.90;;;;;;6208289;23;20016;-85
2021/05/16 10:19:07;;;;;;;31.55;5.50;;;15.40;99.90;;;;;;6207544;23;20472;-87
2021/05/16 10:21:34;;;;;;;26.00;4.82;;;15.50;99.90;;;;;;6208404;23;20351;-82
2021/05/16 10:24:13;;;;;;;28.50;5.32;;;15.60;99.90;;;;;;6209469;23;20020;-83
2021/05/16 10:26:41;;;;;;;27.55;4.85;;;15.70;99.90;;;;;;6198479;23;20035;-83
2021/05/16 10:29:10;;;;;;;26.65;4.85;;;15.70;99.90;;;;;;6209046;23;20013;-82
2021/05/16 10:31:45;;;;;;;27.30;5.18;;;15.60;99.90;;;;;;6208728;23;20391;-84
2021/05/16 10:34:30;;;;;;;31.48;5.57;;;15.60;99.90;;;;;;6210449;23;20099;-84
2021/05/16 10:37:02;;;;;;;31.75;5.68;;;15.80;99.90;;;;;;6209075;23;20012;-84
2021/05/16 10:39:41;;;;;;;26.85;5.30;;;15.70;99.90;;;;;;6209075;23;20032;-83
2021/05/16 10:42:11;;;;;;;34.30;5.57;;;15.60;99.90;;;;;;6208862;23;20016;-86
2021/05/16 10:44:40;;;;;;;29.67;5.75;;;15.60;99.90;;;;;;6211726;23;20028;-87
2021/05/16 10:47:07;;;;;;;36.22;6.05;;;15.50;99.90;;;;;;6209250;23;20021;-87
2021/05/16 10:49:36;;;;;;;23.77;5.32;;;15.40;99.90;;;;;;6211539;23;20020;-83
2021/05/16 10:52:31;;;;;;;39.77;5.30;;;15.30;99.90;;;;;;6210288;23;20095;-81
2021/05/16 10:55:02;;;;;;;27.58;5.63;;;15.20;99.90;;;;;;6209053;23;20271;-82
2021/05/16 10:57:37;;;;;;;31.05;6.15;;;15.10;99.90;;;;;;6209810;23;20020;-82
2021/05/16 11:00:26;;;;;;;28.83;5.43;;;15.20;99.90;;;;;;6212080;23;20017;-81
2021/05/16 11:03:09;;;;;;;31.88;6.00;;;15.30;99.90;;;;;;6212018;23;20016;-83
2021/05/16 11:08:18;;;;;;;24.65;4.63;;;15.30;99.90;;;;;;6210792;23;20027;-86
2021/05/16 11:10:51;;;;;;;33.60;5.72;;;15.30;99.90;;;;;;6210464;23;20381;-85
2021/05/16 11:13:26;;;;;;;27.42;5.57;;;15.30;99.90;;;;;;6207712;23;20329;-85
2021/05/16 11:15:56;;;;;;;28.30;5.60;;;15.30;99.90;;;;;;6208997;23;20013;-84
2021/05/16 11:18:23;;;;;;;30.15;5.80;;;15.30;99.90;;;;;;6206475;23;20547;-89
2021/05/16 11:20:52;;;;;;;34.42;5.75;;;15.30;99.90;;;;;;6210745;23;20367;-86
2021/05/16 11:23:27;;;;;;;30.63;5.47;;;15.20;99.90;;;;;;6210272;23;20050;-82
2021/05/16 11:25:58;;;;;;;26.35;5.22;;;15.20;99.90;;;;;;6210344;23;20530;-81
2021/05/16 11:28:28;;;;;;;32.03;5.72;;;15.10;99.90;;;;;;6211983;23;20478;-87
2021/05/16 11:30:56;;;;;;;31.30;4.68;;;15.10;99.90;;;;;;6212474;23;20024;-85
2021/05/16 11:33:31;;;;;;;27.80;5.55;;;15.20;99.90;;;;;;6213685;23;20067;-84
2021/05/16 11:36:09;;;;;;;32.28;5.45;;;15.20;99.90;;;;;;6215788;23;20012;-86
2021/05/16 11:38:41;;;;;;;32.83;5.28;;;15.10;99.90;;;;;;6213996;23;20008;-84
2021/05/16 11:41:22;;;;;;;28.38;5.10;;;15.10;99.90;;;;;;6215472;23;20017;-82
2021/05/16 11:43:49;;;;;;;33.35;5.20;;;15.30;99.90;;;;;;6214652;23;20078;-86
2021/05/16 11:46:24;;;;;;;30.02;5.53;;;15.40;99.90;;;;;;6213628;23;20012;-83
2021/05/16 11:48:51;;;;;;;23.23;4.80;;;15.40;99.90;;;;;;6214202;23;20367;-82
2021/05/16 11:51:18;;;;;;;25.83;4.72;;;15.50;99.90;;;;;;6213601;23;20383;-86
2021/05/16 11:54:07;;;;;;;19.63;4.57;;;15.50;99.90;;;;;;6214071;23;20020;-87
2021/05/16 11:56:46;;;;;;;26.55;5.45;;;15.50;99.90;;;;;;6214063;23;20078;-82
2021/05/16 11:59:13;;;;;;;28.48;5.32;;;15.60;99.90;;;;;;6213711;23;20016;-84
2021/05/16 12:01:42;;;;;;;22.65;4.80;;;15.60;99.90;;;;;;6213919;23;20070;-82
2021/05/16 12:04:15;;;;;;;29.27;5.50;;;15.60;99.90;;;;;;6213806;23;20551;-84
2021/05/16 12:06:54;;;;;;;28.10;5.72;;;15.40;99.90;;;;;;6214178;23;20380;-82
2021/05/16 12:09:25;;;;;;;38.05;6.40;;;15.30;99.90;;;;;;6214838;23;20021;-86
2021/05/16 12:11:54;;;;;;;36.15;6.47;;;15.30;99.90;;;;;;6214060;23;20066;-83
2021/05/16 12:14:23;;;;;;;33.47;6.10;;;15.30;99.90;;;;;;6214949;23;20021;-85
2021/05/16 12:16:52;;;;;;;32.28;5.20;;;15.30;99.90;;;;;;6214002;23;20021;-83
2021/05/16 12:19:39;;;;;;;36.60;5.80;;;15.30;99.90;;;;;;6213342;23;20071;-85
2021/05/16 12:22:12;;;;;;;35.00;6.18;;;15.50;99.90;;;;;;6215019;23;20020;-82
2021/05/16 12:24:48;;;;;;;26.63;5.43;;;15.60;99.90;;;;;;6213789;23;20020;-82
2021/05/16 12:27:20;;;;;;;30.50;6.25;;;15.60;99.90;;;;;;6213535;23;20016;-83
2021/05/16 12:29:47;;;;;;;28.23;5.78;;;15.40;99.90;;;;;;6215475;23;20514;-83
2021/05/16 12:32:22;;;;;;;26.85;4.93;;;15.30;99.90;;;;;;6214701;23;20092;-83
2021/05/16 12:34:50;;;;;;;32.15;5.68;;;15.50;99.90;;;;;;6213991;23;20016;-84
2021/05/16 12:37:19;;;;;;;33.03;5.75;;;15.60;99.90;;;;;;6213339;23;20021;-85
2021/05/16 12:39:48;;;;;;;32.42;5.22;;;15.70;99.90;;;;;;6213504;23;20017;-83
2021/05/16 12:42:31;;;;;;;26.60;5.28;;;15.80;99.90;;;;;;6213217;23;20020;-84
2021/05/16 12:45:14;;;;;;;30.27;5.20;;;15.80;99.90;;;;;;6215560;23;20022;-84
2021/05/16 12:47:52;;;;;;;28.17;5.13;;;16.00;99.90;;;;;;6213631;23;20017;-84
2021/05/16 12:50:31;;;;;;;30.17;5.37;;;15.90;99.90;;;;;;6214882;23;20013;-83
2021/05/16 12:53:39;;;;;;;24.10;5.55;;;15.90;99.90;;;;;;6213208;23;20456;-84
2021/05/16 12:56:13;;;;;;;27.98;5.22;;;15.80;99.90;;;;;;6126890;23;20025;-84
2021/05/16 12:58:55;;;;;;;31.38;5.85;;;15.90;99.90;;;;;;6127368;23;20017;-84
2021/05/16 13:01:26;;;;;;;34.38;6.10;;;15.90;99.90;;;;;;6127615;23;20626;-85
2021/05/16 13:03:55;;;;;;;40.47;6.18;;;16.00;99.90;;;;;;6127736;23;20077;-84
2021/05/16 13:06:27;;;;;;;;;;;16.10;99.90;;;;;;6127547;23;20080;-85
2021/05/16 13:08:54;;;;;;;26.40;5.28;;;16.10;99.90;;;;;;6127990;23;19916;-82
2021/05/16 13:11:22;;;;;;;30.08;4.85;;;16.00;99.90;;;;;;6151521;23;20461;-82
2021/05/16 13:14:00;;;;;;;26.65;5.28;;;15.80;99.90;;;;;;6152508;23;20060;-83
2021/05/16 13:16:37;;;;;;;25.83;4.88;;;15.80;99.90;;;;;;6127107;23;20021;-82
2021/05/16 13:19:04;;;;;;;27.88;5.70;;;15.80;99.90;;;;;;6151682;23;20072;-84
2021/05/16 13:21:32;;;;;;;28.52;5.15;;;15.70;99.90;;;;;;6152222;23;20458;-83
2021/05/16 13:24:02;;;;;;;43.17;6.68;;;15.70;99.90;;;;;;6152400;23;20105;-82
2021/05/16 13:26:57;;;;;;;33.40;6.47;;;15.70;99.90;;;;;;6154252;23;20095;-83
2021/05/16 13:29:29;;;;;;;33.90;6.38;;;15.70;99.90;;;;;;6214279;23;20020;-82
2021/05/16 13:31:56;;;;;;;35.35;6.45;;;15.60;99.90;;;;;;6214312;23;20392;-83
2021/05/16 13:34:25;;;;;;;25.92;5.68;;;15.70;99.90;;;;;;6212644;23;20078;-84
2021/05/16 13:36:55;;;;;;;32.00;6.28;;;15.70;99.90;;;;;;6213582;23;20020;-82
2021/05/16 13:39:26;;;;;;;27.40;5.75;;;15.80;99.90;;;;;;6214072;23;20044;-83
2021/05/16 13:41:59;;;;;;;32.15;5.18;;;15.80;99.90;;;;;;6214856;23;20012;-83
2021/05/16 13:44:30;;;;;;;28.48;5.82;;;15.80;99.90;;;;;;6214390;23;20021;-82
2021/05/16 13:47:00;;;;;;;29.48;6.32;;;15.90;99.90;;;;;;6213709;23;20309;-82
2021/05/16 13:49:29;;;;;;;25.90;5.88;;;15.90;99.90;;;;;;6214108;23;20013;-83
2021/05/16 13:51:56;;;;;;;33.03;6.05;;;15.80;99.90;;;;;;6212984;23;20072;-85
2021/05/16 13:54:25;;;;;;;21.27;5.05;;;15.90;99.90;;;;;;6213781;23;20021;-84
2021/05/16 13:56:56;;;;;;;32.38;6.22;;;15.90;99.90;;;;;;6213261;23;20013;-83
2021/05/16 13:59:24;;;;;;;26.85;5.50;;;15.90;99.90;;;;;;6212607;23;20075;-84
2021/05/16 14:01:52;;;;;;;30.77;5.80;;;15.90;99.90;;;;;;6212735;23;20017;-83
2021/05/16 14:04:19;;;;;;;23.20;5.35;;;15.80;99.90;;;;;;6214214;23;20467;-85
2021/05/16 14:06:47;;;;;;;29.38;5.40;;;15.90;99.90;;;;;;6214825;23;20016;-86
2021/05/16 14:09:14;;;;;;;29.55;5.38;;;16.00;99.90;;;;;;6214036;23;20062;-84
2021/05/16 14:11:41;;;;;;;29.80;5.90;;;15.90;99.90;;;;;;6214700;23;20074;-84
2021/05/16 14:14:09;;;;;;;27.20;5.03;;;15.90;99.90;;;;;;6212011;23;20012;-86
2021/05/16 14:16:37;;;;;;;24.80;5.10;;;15.80;99.90;;;;;;6212739;23;20384;-82
2021/05/16 14:19:04;;;;;;;24.30;5.07;;;15.70;99.90;;;;;;6213781;23;20236;-83
2021/05/16 14:21:31;;;;;;;34.67;5.22;;;15.60;99.90;;;;;;6212556;23;20360;-83
2021/05/16 14:23:58;;;;;;;29.27;5.53;;;15.70;99.90;;;;;;6212962;23;20012;-83
2021/05/16 14:26:26;;;;;;;24.85;4.90;;;15.70;99.90;;;;;;6212241;23;20020;-84
2021/05/16 14:28:53;;;;;;;23.40;4.18;;;15.60;99.90;;;;;;6214582;23;20016;-83
2021/05/16 14:31:20;;;;;;;30.15;5.18;;;15.60;99.90;;;;;;6211823;23;20024;-82
2021/05/16 14:33:47;;;;;;;30.13;5.50;;;15.50;99.90;;;;;;6214375;23;20017;-83
2021/05/16 14:36:14;;;;;;;30.38;6.20;;;15.50;99.90;;;;;;6212389;23;20017;-84
2021/05/16 14:38:40;;;;;;;36.00;6.43;;;15.40;99.90;;;;;;6214722;23;20012;-82
2021/05/16 14:41:07;;;;;;;39.38;6.18;;;15.20;99.90;;;;;;6211863;23;20071;-84
2021/05/16 14:43:37;;;;;;;33.47;5.88;;;15.00;99.90;;;;;;6214068;23;20017;-83
2021/05/16 14:46:05;;;;;;;28.10;5.03;;;15.00;99.90;;;;;;6213791;23;20020;-82
2021/05/16 14:48:40;;;;;;;35.60;5.47;;;15.00;99.90;;;;;;6214069;23;20017;-84
2021/05/16 14:51:20;;;;;;;36.38;6.03;;;14.90;99.90;;;;;;6213648;23;20021;-85
2021/05/16 14:53:48;;;;;;;27.85;5.15;;;14.90;99.90;;;;;;6211946;23;20016;-83
2021/05/16 14:56:15;;;;;;;29.30;5.53;;;14.90;99.90;;;;;;6213468;23;20086;-82
2021/05/16 14:58:43;;;;;;;28.20;4.65;;;15.00;99.90;;;;;;6212677;23;20463;-82
2021/05/16 15:01:10;;;;;;;21.92;5.43;;;14.90;99.90;;;;;;6213597;23;20028;-82
2021/05/16 15:03:37;;;;;;;31.33;5.60;;;14.90;99.90;;;;;;6214115;23;20541;-84
2021/05/16 15:06:05;;;;;;;31.63;5.60;;;15.10;99.90;;;;;;6213563;23;20067;-85
2021/05/16 15:08:32;;;;;;;30.30;5.20;;;15.10;99.90;;;;;;6214032;23;20079;-85
2021/05/16 15:10:58;;;;;;;28.02;5.75;;;15.30;99.90;;;;;;6212481;23;20016;-83
2021/05/16 15:13:25;;;;;;;30.92;5.60;;;15.30;99.90;;;;;;6213385;23;20549;-83
2021/05/16 15:15:53;;;;;;;28.70;5.15;;;15.40;99.90;;;;;;6212150;23;20463;-84
2021/05/16 15:18:23;;;;;;;31.98;5.90;;;15.50;99.90;;;;;;6212288;23;20055;-85
2021/05/16 15:20:51;;;;;;;34.63;6.68;;;15.50;99.90;;;;;;6212826;23;20095;-84
2021/05/16 15:23:18;;;;;;;29.45;5.05;;;15.60;99.90;;;;;;6212034;23;20012;-83
2021/05/16 15:25:45;;;;;;;28.90;4.95;;;15.50;99.90;;;;;;6212189;23;20020;-83
2021/05/16 15:28:11;;;;;;;27.50;5.32;;;15.60;99.90;;;;;;6213759;23;20352;-81
2021/05/16 15:30:38;;;;;;;25.75;5.03;;;15.50;99.90;;;;;;6214048;23;20016;-84
2021/05/16 15:33:05;;;;;;;29.80;5.57;;;15.60;99.90;;;;;;6212949;23;20546;-83
2021/05/16 15:35:32;;;;;;;27.88;4.82;;;15.60;99.90;;;;;;6214086;23;20518;-83
2021/05/16 15:37:59;;;;;;;30.33;4.88;;;15.60;99.90;;;;;;6212369;23;20012;-83
2021/05/16 15:40:26;;;;;;;28.17;5.28;;;15.40;99.90;;;;;;6211639;23;20440;-82
2021/05/16 15:42:53;;;;;;;21.70;4.60;;;15.20;99.90;;;;;;6211558;23;20067;-80
2021/05/16 15:45:20;;;;;;;24.23;5.30;;;15.00;99.90;;;;;;6211108;23;20032;-80
2021/05/16 15:47:49;;;;;;;;;;;15.00;99.90;;;;;;6208062;23;20020;-80
2021/05/16 15:50:17;;;;;;;24.13;5.45;;;14.90;99.90;;;;;;6212612;23;20331;-81
2021/05/16 15:52:44;;;;;;;19.73;4.38;;;14.80;99.90;;;;;;6212137;23;20012;-81
2021/05/16 15:55:11;;;;;;;28.40;4.35;;;14.80;99.90;;;;;;6210810;23;20016;-80
2021/05/16 15:57:38;;;;;;;29.08;4.85;;;14.80;99.90;;;;;;6211312;23;20075;-80
2021/05/16 16:00:05;;;;;;;26.08;4.43;;;14.80;99.90;;;;;;6210924;23;20094;-82
2021/05/16 16:02:32;;;;;;;26.85;5.30;;;14.80;99.90;;;;;;6213184;23;20064;-80
2021/05/16 16:04:59;;;;;;;25.88;4.78;;;14.70;99.90;;;;;;6211590;23;20024;-80
2021/05/16 16:07:26;;;;;;;28.20;5.30;;;14.60;99.90;;;;;;6209535;23;20028;-82
2021/05/16 16:09:53;;;;;;;29.58;5.57;;;14.60;99.90;;;;;;6211285;23;20013;-82
2021/05/16 16:12:20;;;;;;;31.08;5.45;;;14.60;99.90;;;;;;6207413;23;20029;-81
2021/05/16 16:14:47;;;;;;;23.10;4.68;;;14.50;99.90;;;;;;6208542;23;20046;-81
2021/05/16 16:17:14;;;;;;;31.63;5.70;;;14.50;99.90;;;;;;6209282;23;20020;-82
2021/05/16 16:19:41;;;;;;;26.58;4.72;;;14.50;99.90;;;;;;6212069;23;20035;-81
2021/05/16 16:22:08;;;;;;;30.33;5.53;;;14.40;99.90;;;;;;6209862;23;20329;-81
2021/05/16 16:24:53;;;;;;;22.33;4.18;;;14.30;99.90;;;;;;6210837;23;20075;-80
2021/05/16 16:27:20;;;;;;;26.42;4.22;;;14.20;99.90;;;;;;6211152;23;20033;-81
2021/05/16 16:29:47;;;;;;;27.42;5.13;;;14.30;99.90;;;;;;6210342;23;20044;-83
2021/05/16 16:32:14;;;;;;;30.65;5.40;;;14.30;99.90;;;;;;6209256;23;20063;-82
2021/05/16 16:34:41;;;;;;;29.65;4.88;;;14.50;99.90;;;;;;6211545;23;20086;-80
2021/05/16 16:37:08;;;;;;;28.02;5.50;;;14.50;99.90;;;;;;6210918;23;20031;-79
2021/05/16 16:39:34;;;;;;;28.88;6.03;;;14.60;99.90;;;;;;6209834;23;20017;-79
2021/05/16 16:42:01;;;;;;;19.85;4.68;;;14.70;99.90;;;;;;6212334;23;20396;-79
2021/05/16 16:44:28;;;;;;;27.02;4.82;;;14.70;99.90;;;;;;6209554;23;20012;-81
2021/05/16 16:46:55;;;;;;;30.40;5.60;;;14.70;99.90;;;;;;6211477;23;20017;-80
2021/05/16 16:49:22;;;;;;;28.63;5.43;;;14.70;99.90;;;;;;6205050;23;20028;-81
2021/05/16 16:51:50;;;;;;;29.20;4.82;;;14.60;99.90;;;;;;6211290;23;20016;-79
2021/05/16 16:54:17;;;;;;;27.10;4.40;;;14.40;99.90;;;;;;6210499;23;20021;-81
2021/05/16 16:56:43;;;;;;;26.90;5.25;;;14.20;99.90;;;;;;6210485;23;20012;-82
2021/05/16 16:59:10;;;;;;;31.65;5.78;;;14.10;99.90;;;;;;6210698;23;20021;-82
2021/05/16 17:01:37;;;;;;;30.38;5.40;;;14.00;99.90;;;;;;6207841;23;20017;-81
2021/05/16 17:04:04;;;;;;;28.30;5.18;;;14.00;99.90;;;;;;6206029;23;20017;-80
2021/05/16 17:06:31;;;;;;;28.50;5.32;;;13.90;99.90;;;;;;6205632;23;20025;-80
2021/05/16 17:09:03;;;;;;;33.33;5.13;;;13.90;99.90;;;;;;6204735;23;20063;-81
2021/05/16 17:11:32;;;;;;;28.77;4.78;;;13.90;99.90;;;;;;6206602;23;20071;-81
2021/05/16 17:14:00;;;;;;;31.88;5.32;;;14.00;99.90;;;;;;6205999;23;20482;-81
2021/05/16 17:16:29;;;;;;;26.83;4.03;;;14.00;99.90;;;;;;6205444;23;20379;-80
2021/05/16 17:18:56;;;;;;;26.63;4.82;;;14.00;99.90;;;;;;6211072;23;20024;-79
2021/05/16 17:21:23;;;;;;;26.70;4.38;;;13.90;99.90;;;;;;6210670;23;20055;-79
2021/05/16 17:23:50;;;;;;;30.48;5.50;;;13.80;99.90;;;;;;6209653;23;20020;-81
2021/05/16 17:26:17;;;;;;;35.83;5.55;;;13.70;99.90;;;;;;6208898;23;20348;-78
2021/05/16 17:28:44;;;;;;;30.48;5.50;;;13.70;99.90;;;;;;6208914;23;20075;-80
2021/05/16 17:31:11;;;;;;;37.28;5.47;;;13.70;99.90;;;;;;6210124;23;20067;-82
2021/05/16 17:33:38;;;;;;;33.08;5.70;;;13.60;99.90;;;;;;6209594;23;20024;-81
2021/05/16 17:36:05;;;;;;;32.85;6.05;;;13.70;99.90;;;;;;6210822;23;20029;-79
2021/05/16 17:38:32;;;;;;;35.90;6.40;;;13.60;99.90;;;;;;6209713;23;20017;-80
2021/05/16 17:40:59;;;;;;;40.33;5.97;;;13.50;99.90;;;;;;6206047;23;20012;-81
2021/05/16 17:43:27;;;;;;;30.17;5.93;;;13.50;99.90;;;;;;6200786;23;20036;-82
2021/05/16 17:45:54;;;;;;;32.70;5.75;;;13.60;99.90;;;;;;6204546;23;20360;-83
2021/05/16 17:48:24;;;;;;;28.85;5.15;;;13.50;99.90;;;;;;6199217;23;20090;-81
2021/05/16 17:50:52;;;;;;;29.65;5.22;;;13.50;99.90;;;;;;6202314;23;20051;-81
2021/05/16 17:53:23;;;;;;;42.17;6.45;;;13.40;99.90;;;;;;6203696;23;20361;-83
2021/05/16 17:55:50;;;;;;;29.15;6.18;;;13.40;99.90;;;;;;6202607;23;20023;-82
2021/05/16 17:58:17;;;;;;;31.17;5.22;;;13.30;99.90;;;;;;6204320;23;20025;-83
2021/05/16 18:00:44;;;;;;;42.22;6.45;;;13.30;99.90;;;;;;6205009;23;20439;-83
2021/05/16 18:03:13;;;;;;;29.55;5.22;;;13.20;99.90;;;;;;6203107;23;20032;-81
2021/05/16 18:05:40;;;;;;;30.08;5.85;;;13.20;99.90;;;;;;6202875;23;20032;-82
2021/05/16 18:08:07;;;;;;;29.17;5.40;;;13.20;99.90;;;;;;6206553;23;20020;-82
2021/05/16 18:10:34;;;;;;;37.35;6.95;;;13.20;99.90;;;;;;6209355;23;20020;-83
2021/05/16 18:13:01;;;;;;;35.72;6.45;;;13.10;99.90;;;;;;6208575;23;20017;-81
2021/05/16 18:15:28;;;;;;;46.30;6.60;;;13.10;99.90;;;;;;6209865;23;20017;-82
2021/05/16 18:17:55;;;;;;;37.10;7.07;;;13.10;99.90;;;;;;6210650;23;20460;-83
2021/05/16 18:20:23;;;;;;;39.00;6.78;;;13.00;99.90;;;;;;6208060;23;20025;-82
2021/05/16 18:22:51;;;;;;;36.22;5.90;;;13.10;99.90;;;;;;6209742;23;20017;-82
2021/05/16 18:25:18;;;;;;;27.33;5.10;;;13.10;99.90;;;;;;6207761;23;20024;-81
2021/05/16 18:27:46;;;;;;;23.55;5.30;;;13.00;99.90;;;;;;6209842;23;20123;-80
2021/05/16 18:30:14;;;;;;;33.60;5.40;;;13.00;99.90;;;;;;6210195;23;20021;-80
2021/05/16 18:32:41;;;;;;;34.10;6.13;;;13.00;99.90;;;;;;6210045;23;20542;-81
2021/05/16 18:35:10;;;;;;;37.50;5.57;;;13.00;99.90;;;;;;6208355;23;20075;-80
2021/05/16 18:37:38;;;;;;;32.97;5.05;;;12.90;99.90;;;;;;6209243;23;20013;-79
2021/05/16 18:40:06;;;;;;;27.33;4.27;;;12.90;99.90;;;;;;6208554;23;20380;-80
2021/05/16 18:42:34;;;;;;;;;;;12.90;99.90;;;;;;6209215;23;20329;-81
2021/05/16 18:45:02;;;;;;;24.95;5.78;;;12.80;99.90;;;;;;6209308;23;19919;-81
2021/05/16 18:47:29;;;;;;;26.27;4.75;;;12.70;99.90;;;;;;6210869;23;20514;-82
2021/05/16 18:49:56;;;;;;;30.83;5.43;;;12.70;99.90;;;;;;6209696;23;20320;-81
2021/05/16 18:52:23;;;;;;;40.55;5.80;;;12.70;99.90;;;;;;6207253;23;20056;-82
2021/05/16 18:54:50;;;;;;;34.10;5.53;;;12.70;99.90;;;;;;6207821;23;20017;-81
2021/05/16 18:57:17;;;;;;;29.50;5.28;;;12.60;99.90;;;;;;6207417;23;20404;-80
2021/05/16 18:59:48;;;;;;;26.02;4.70;;;12.60;99.90;;;;;;6207225;23;20016;-82
2021/05/16 19:02:17;;;;;;;39.45;4.85;;;12.60;99.90;;;;;;6209168;23;20019;-80
2021/05/16 19:04:47;;;;;;;28.95;5.28;;;12.60;99.90;;;;;;6209180;23;20063;-80
2021/05/16 19:07:17;;;;;;;22.77;4.20;;;12.60;99.90;;;;;;6207393;23;20408;-80
2021/05/16 19:09:44;;;;;;;29.70;6.05;;;12.50;99.90;;;;;;6206970;23;20024;-79
2021/05/16 19:12:11;;;;;;;31.88;4.40;;;12.50;99.90;;;;;;6203720;23;20078;-79
2021/05/16 19:14:38;;;;;;;27.58;5.63;;;12.40;99.90;;;;;;6202394;23;20071;-81
2021/05/16 19:17:07;;;;;;;32.47;5.53;;;12.30;99.90;;;;;;6201887;23;20059;-83
2021/05/16 19:19:36;;;;;;;26.00;5.70;;;12.30;99.90;;;;;;6200530;23;20017;-81
2021/05/16 19:22:04;;;;;;;38.22;6.03;;;12.30;99.90;;;;;;6200378;23;20016;-84
2021/05/16 19:24:30;;;;;;;35.20;6.80;;;12.30;99.90;;;;;;6201005;23;20650;-82
2021/05/16 19:26:57;;;;;;;38.88;7.60;;;12.30;99.90;;;;;;6200357;23;20035;-81
2021/05/16 19:29:25;;;;;;;40.78;8.05;;;12.20;99.90;;;;;;6202085;23;20021;-81
2021/05/16 19:31:54;;;;;;;39.00;7.50;;;12.20;99.90;;;;;;6201753;23;20029;-80
2021/05/16 19:34:21;;;;;;;32.03;7.05;;;12.30;99.90;;;;;;6202144;23;20043;-80
2021/05/16 19:36:48;;;;;;;31.33;5.57;;;12.20;99.90;;;;;;6203745;23;20023;-83
2021/05/16 19:39:15;;;;;;;39.13;5.93;;;12.20;99.90;;;;;;6202892;23;20538;-83
2021/05/16 19:41:51;;;;;;;32.08;6.43;;;12.20;99.90;;;;;;6205546;23;20020;-82
2021/05/16 19:44:19;;;;;;;33.10;4.38;;;12.20;99.90;;;;;;6202705;23;20488;-80
2021/05/16 19:46:46;;;;;;;28.10;5.03;;;12.20;99.90;;;;;;6202850;23;20543;-83
2021/05/16 19:49:15;;;;;;;29.30;4.32;;;12.20;99.90;;;;;;6203124;23;20076;-82
2021/05/16 19:51:42;;;;;;;;;;;12.10;99.90;;;;;;6206669;23;20535;-83
2021/05/16 19:54:10;;;;;;;31.55;4.72;;;12.00;99.90;;;;;;6204685;23;19974;-83
2021/05/16 19:56:37;;;;;;;27.17;5.32;;;11.90;99.90;;;;;;6204402;23;20071;-81
2021/05/16 19:59:04;;;;;;;25.33;4.40;;;11.90;99.90;;;;;;6206389;23;20393;-80
2021/05/16 20:01:31;;;;;;;28.02;4.88;;;11.90;99.90;;;;;;6207304;23;20019;-79
2021/05/16 20:03:58;;;;;;;37.67;4.90;;;11.80;99.90;;;;;;6211691;23;20062;-82
2021/05/16 20:06:25;;;;;;;34.72;6.13;;;11.80;99.90;;;;;;6210094;23;20024;-80
2021/05/16 20:08:52;;;;;;;37.20;6.30;;;11.90;99.90;;;;;;6206915;23;20024;-80
2021/05/16 20:11:32;;;;;;;29.42;5.03;;;11.80;99.90;;;;;;6210351;23;20012;-82
2021/05/16 20:13:59;;;;;;;28.50;5.18;;;11.80;99.90;;;;;;6210024;23;20066;-80
2021/05/16 20:16:27;;;;;;;40.88;4.88;;;11.80;99.90;;;;;;6211338;23;20811;-81
2021/05/16 20:18:54;;;;;;;26.70;5.15;;;11.80;99.90;;;;;;6211035;23;20020;-80
2021/05/16 20:21:21;;;;;;;34.42;5.18;;;11.80;99.90;;;;;;6209769;23;20079;-82
2021/05/16 20:23:48;;;;;;;29.30;5.72;;;11.80;99.90;;;;;;6207240;23;20502;-83